createdAt,value
2023-01-29T00:02:27.179Z,4.22
2023-01-29T00:06:28.802Z,4.80
2023-01-29T00:10:30.404Z,4.60
2023-01-29T00:14:31.951Z,5.30
2023-01-29T00:18:33.497Z,4.57
2023-01-29T00:22:35.041Z,4.57
2023-01-29T00:26:38.931Z,5.85
2023-01-29T00:30:41.119Z,5.43
2023-01-29T00:34:42.683Z,5.07
2023-01-29T00:38:44.498Z,5.18
2023-01-29T00:43:04.872Z,4.95
2023-01-29T00:47:45.415Z,4.72
2023-01-29T00:52:09.820Z,4.68
2023-01-29T00:56:11.380Z,5.30
2023-01-29T01:00:16.283Z,5.13
2023-01-29T01:04:18.070Z,4.85
2023-01-29T01:12:44.853Z,5.28
2023-01-29T01:16:48.030Z,4.80
2023-01-29T01:20:53.007Z,4.07
2023-01-29T01:24:54.815Z,5.28
2023-01-29T01:28:56.353Z,4.63
2023-01-29T01:32:58.026Z,4.72
2023-01-29T01:36:59.566Z,4.57
2023-01-29T01:41:01.105Z,4.60
2023-01-29T01:45:08.119Z,3.85
2023-01-29T01:49:16.008Z,4.05
2023-01-29T01:53:26.608Z,3.85
2023-01-29T01:57:30.729Z,4.03
2023-01-29T02:01:32.921Z,3.92
2023-01-29T02:05:55.517Z,3.70
2023-01-29T02:10:08.475Z,3.95
2023-01-29T02:14:10.958Z,3.75
2023-01-29T02:18:14.420Z,4.05
2023-01-29T02:22:33.717Z,4.38
2023-01-29T02:27:07.139Z,3.83
2023-01-29T02:31:48.292Z,4.22
2023-01-29T02:36:07.808Z,4.05
2023-01-29T02:40:23.517Z,4.30
2023-01-29T02:44:37.677Z,4.45
2023-01-29T02:48:46.027Z,4.60
2023-01-29T02:52:50.925Z,4.47
2023-01-29T02:57:00.900Z,4.68
2023-01-29T03:01:26.309Z,4.68
2023-01-29T03:05:34.139Z,4.07
2023-01-29T03:09:42.734Z,4.13
2023-01-29T03:13:53.267Z,4.65
2023-01-29T03:18:08.609Z,4.38
2023-01-29T03:22:13.600Z,4.20
2023-01-29T03:26:36.673Z,4.13
2023-01-29T03:31:09.031Z,4.35
2023-01-29T03:35:36.965Z,4.32
2023-01-29T03:39:40.300Z,4.15
2023-01-29T03:43:50.783Z,4.32
2023-01-29T03:48:14.862Z,4.68
2023-01-29T03:52:23.672Z,4.45
2023-01-29T03:56:44.502Z,4.53
2023-01-29T04:00:56.476Z,4.50
2023-01-29T04:05:05.981Z,3.80
2023-01-29T04:09:32.683Z,4.43
2023-01-29T04:13:34.869Z,4.57
2023-01-29T04:17:42.880Z,3.83
2023-01-29T04:21:59.806Z,4.60
2023-01-29T04:26:19.443Z,5.10
2023-01-29T04:30:40.171Z,4.13
2023-01-29T04:34:51.771Z,4.10
2023-01-29T04:39:18.116Z,4.70
2023-01-29T04:43:50.733Z,4.60
2023-01-29T04:48:15.638Z,4.70
2023-01-29T04:52:21.112Z,4.53
2023-01-29T04:56:41.088Z,4.75
2023-01-29T05:00:46.146Z,4.00
2023-01-29T05:04:50.120Z,3.92
2023-01-29T05:08:52.494Z,3.80
2023-01-29T05:13:01.355Z,4.18
2023-01-29T05:17:09.343Z,4.05
2023-01-29T05:21:11.156Z,4.53
2023-01-29T05:25:22.258Z,2.65
2023-01-29T05:29:28.120Z,4.45
2023-01-29T05:33:31.502Z,5.45
2023-01-29T05:37:33.144Z,4.90
2023-01-29T05:41:34.693Z,4.93
2023-01-29T05:45:36.208Z,5.22
2023-01-29T05:49:38.789Z,4.93
2023-01-29T05:53:40.420Z,5.00
2023-01-29T05:57:41.963Z,4.68
2023-01-29T06:01:43.764Z,5.72
2023-01-29T06:05:45.353Z,5.22
2023-01-29T06:09:46.965Z,5.70
2023-01-29T06:13:48.975Z,5.22
2023-01-29T06:17:50.548Z,4.87
2023-01-29T06:21:52.124Z,5.22
2023-01-29T06:25:53.671Z,5.05
2023-01-29T06:29:55.211Z,5.55
2023-01-29T06:33:56.734Z,5.72
2023-01-29T06:37:58.303Z,5.75
2023-01-29T06:41:59.969Z,5.45
2023-01-29T06:46:01.684Z,5.80
2023-01-29T06:50:04.156Z,5.35
2023-01-29T06:54:06.495Z,5.63
2023-01-29T06:58:12.107Z,5.88
2023-01-29T07:02:14.045Z,6.93
2023-01-29T07:06:15.704Z,5.90
2023-01-29T07:10:17.757Z,6.03
2023-01-29T07:14:19.540Z,6.40
2023-01-29T07:18:21.114Z,6.32
2023-01-29T07:22:22.706Z,5.55
2023-01-29T07:26:24.329Z,6.53
2023-01-29T07:30:25.945Z,6.78
2023-01-29T07:34:27.478Z,5.93
2023-01-29T07:38:29.035Z,6.32
2023-01-29T07:42:31.037Z,5.65
2023-01-29T07:46:32.607Z,5.07
2023-01-29T07:50:35.365Z,4.75
2023-01-29T07:58:38.477Z,5.53
2023-01-29T08:02:41.234Z,5.30
2023-01-29T08:10:44.231Z,5.72
2023-01-29T08:14:45.900Z,4.85
2023-01-29T08:18:48.869Z,5.30
2023-01-29T08:22:58.133Z,5.45
2023-01-29T08:26:59.674Z,5.78
2023-01-29T08:31:01.874Z,5.82
2023-01-29T08:35:03.783Z,5.40
2023-01-29T08:39:06.358Z,5.80
2023-01-29T08:43:10.051Z,5.25
2023-01-29T08:47:13.385Z,4.65
2023-01-29T08:51:15.086Z,4.28
2023-01-29T08:55:17.169Z,5.55
2023-01-29T08:59:19.222Z,5.55
2023-01-29T09:03:20.834Z,5.40
2023-01-29T09:07:22.427Z,6.43
2023-01-29T09:11:24.096Z,5.55
2023-01-29T09:15:25.709Z,5.07
2023-01-29T09:19:27.361Z,6.97
2023-01-29T09:23:30.441Z,5.80
2023-01-29T09:27:31.999Z,5.10
2023-01-29T09:31:33.732Z,5.85
2023-01-29T09:35:35.587Z,5.68
2023-01-29T09:39:37.198Z,5.60
2023-01-29T09:43:49.562Z,7.53
2023-01-29T09:47:52.006Z,5.72
2023-01-29T09:52:01.316Z,5.50
2023-01-29T09:56:06.591Z,5.45
2023-01-29T10:00:16.070Z,5.88
2023-01-29T10:09:34.160Z,5.63
2023-01-29T10:14:06.879Z,5.30
2023-01-29T10:18:11.122Z,5.50
2023-01-29T10:22:18.822Z,5.78
2023-01-29T10:26:26.365Z,5.63
2023-01-29T10:30:39.443Z,5.88
2023-01-29T10:38:51.029Z,5.78
2023-01-29T10:43:06.266Z,5.60
2023-01-29T10:47:21.038Z,5.53
2023-01-29T10:52:07.607Z,5.50
2023-01-29T10:56:22.424Z,5.60
2023-01-29T11:00:43.953Z,5.20
2023-01-29T11:04:47.639Z,5.45
2023-01-29T11:09:20.248Z,6.03
2023-01-29T11:13:25.814Z,6.45
2023-01-29T11:17:27.973Z,6.78
2023-01-29T11:21:29.890Z,6.13
2023-01-29T11:25:32.829Z,6.57
2023-01-29T11:33:36.045Z,6.18
2023-01-29T11:37:40.279Z,6.90
2023-01-29T11:42:03.754Z,8.43
2023-01-29T11:46:11.704Z,7.85
2023-01-29T11:50:22.843Z,6.53
2023-01-29T11:54:29.908Z,6.80
2023-01-29T11:58:34.585Z,6.68
2023-01-29T12:02:44.042Z,7.63
2023-01-29T12:06:49.201Z,6.07
2023-01-29T12:10:51.172Z,6.65
2023-01-29T12:15:05.774Z,5.97
2023-01-29T12:19:16.532Z,6.47
2023-01-29T12:23:24.097Z,6.65
2023-01-29T12:27:30.196Z,6.53
2023-01-29T12:31:36.990Z,5.88
2023-01-29T12:35:45.923Z,6.25
2023-01-29T12:39:49.367Z,5.93
2023-01-29T12:43:56.153Z,6.38
2023-01-29T12:48:02.022Z,6.25
2023-01-29T12:52:15.178Z,5.93
2023-01-29T12:56:26.875Z,6.15
2023-01-29T13:00:32.675Z,6.60
2023-01-29T13:04:39.844Z,6.10
2023-01-29T13:08:44.768Z,6.65
2023-01-29T13:13:15.709Z,5.90
2023-01-29T13:17:38.102Z,6.25
2023-01-29T13:21:42.112Z,6.43
2023-01-29T13:25:43.809Z,6.28
2023-01-29T13:29:45.495Z,5.70
2023-01-29T13:34:28.500Z,5.80
2023-01-29T13:38:35.453Z,6.35
2023-01-29T13:42:44.088Z,6.07
2023-01-29T13:46:52.508Z,7.60
2023-01-29T13:50:56.722Z,7.20
2023-01-29T13:55:01.560Z,7.07
2023-01-29T13:59:06.368Z,7.15
2023-01-29T14:03:13.907Z,8.93
2023-01-29T14:07:40.915Z,8.02
2023-01-29T14:11:48.497Z,6.63
2023-01-29T14:15:58.928Z,7.20
2023-01-29T14:20:18.320Z,7.32
2023-01-29T14:24:24.675Z,7.60
2023-01-29T14:28:29.854Z,7.85
2023-01-29T14:32:32.111Z,7.28
2023-01-29T14:36:42.115Z,7.00
2023-01-29T14:40:47.181Z,6.55
2023-01-29T14:44:56.736Z,5.57
2023-01-29T14:48:58.330Z,7.22
2023-01-29T14:53:18.921Z,6.80
2023-01-29T14:57:20.921Z,7.47
2023-01-29T15:01:25.438Z,7.13
2023-01-29T15:05:32.935Z,7.75
2023-01-29T15:09:42.442Z,5.50
2023-01-29T15:14:07.060Z,6.70
2023-01-29T15:18:12.880Z,6.55
2023-01-29T15:22:19.811Z,7.15
2023-01-29T15:26:25.303Z,6.43
2023-01-29T15:30:33.606Z,7.45
2023-01-29T15:34:35.705Z,6.43
2023-01-29T15:38:37.286Z,6.33
2023-01-29T15:42:46.688Z,6.63
2023-01-29T15:46:57.067Z,6.88
2023-01-29T15:50:59.072Z,6.28
2023-01-29T15:55:05.187Z,7.00
2023-01-29T15:59:14.679Z,6.88
2023-01-29T16:03:16.794Z,7.63
2023-01-29T16:07:18.558Z,5.93
2023-01-29T16:11:21.255Z,10.68
2023-01-29T16:15:37.347Z,10.82
2023-01-29T16:19:38.991Z,11.65
2023-01-29T16:23:46.109Z,12.68
2023-01-29T16:27:47.831Z,13.27
2023-01-29T16:31:54.334Z,14.35
2023-01-29T16:35:57.204Z,12.40
2023-01-29T16:44:04.339Z,9.60
2023-01-29T16:48:41.179Z,11.40
2023-01-29T16:52:58.852Z,11.70
2023-01-29T16:57:03.424Z,11.82
2023-01-29T17:01:10.511Z,12.50
2023-01-29T17:05:22.399Z,11.38
2023-01-29T17:09:31.316Z,11.20
2023-01-29T17:13:36.944Z,11.82
2023-01-29T17:17:40.709Z,11.95
2023-01-29T17:21:42.245Z,11.98
2023-01-29T17:25:46.087Z,11.30
2023-01-29T17:29:48.141Z,13.40
2023-01-29T17:33:49.806Z,11.83
2023-01-29T17:37:51.462Z,11.57
2023-01-29T17:41:57.761Z,11.57
2023-01-29T17:45:59.394Z,11.90
2023-01-29T17:50:01.023Z,11.90
2023-01-29T17:54:02.596Z,11.90
2023-01-29T17:58:04.100Z,11.85
2023-01-29T18:02:05.743Z,11.50
2023-01-29T18:06:09.117Z,12.13
2023-01-29T18:10:21.291Z,12.07
2023-01-29T18:14:22.914Z,13.73
2023-01-29T18:18:24.851Z,15.38
2023-01-29T18:22:26.583Z,13.73
2023-01-29T18:26:28.185Z,9.73
2023-01-29T18:30:30.070Z,13.05
2023-01-29T18:34:31.700Z,15.43
2023-01-29T18:38:33.426Z,14.30
2023-01-29T18:42:36.042Z,15.38
2023-01-29T18:46:37.699Z,14.23
2023-01-29T18:50:39.248Z,14.35
2023-01-29T18:54:40.848Z,11.88
2023-01-29T18:58:49.801Z,13.20
2023-01-29T19:02:57.157Z,12.70
2023-01-29T19:06:58.845Z,11.70
2023-01-29T19:11:02.512Z,13.35
2023-01-29T19:15:04.566Z,14.63
2023-01-29T19:19:06.142Z,10.90
2023-01-29T19:23:08.802Z,13.18
2023-01-29T19:27:11.664Z,12.15
2023-01-29T19:31:13.304Z,12.07
2023-01-29T19:35:14.909Z,12.25
2023-01-29T19:39:16.625Z,15.77
2023-01-29T19:43:22.666Z,15.70
2023-01-29T19:47:24.233Z,17.05
2023-01-29T19:51:28.235Z,23.00
2023-01-29T19:55:30.820Z,28.67
2023-01-29T19:59:32.380Z,32.13
2023-01-29T20:03:34.545Z,33.92
2023-01-29T20:07:36.593Z,31.88
2023-01-29T20:11:38.280Z,29.77
2023-01-29T20:15:44.670Z,35.88
2023-01-29T20:19:46.481Z,38.30
2023-01-29T20:23:52.184Z,24.07
2023-01-29T20:27:53.743Z,27.88
2023-01-29T20:31:55.505Z,21.75
2023-01-29T20:35:59.365Z,19.88
2023-01-29T20:40:00.915Z,29.58
2023-01-29T20:44:02.657Z,38.97
2023-01-29T20:48:04.347Z,35.80
2023-01-29T20:52:07.624Z,23.50
2023-01-29T20:56:09.819Z,18.95
2023-01-29T21:00:14.415Z,13.15
2023-01-29T21:04:15.932Z,11.40
2023-01-29T21:08:17.972Z,10.15
2023-01-29T21:12:19.581Z,10.43
2023-01-29T21:16:22.582Z,11.23
2023-01-29T21:20:24.171Z,10.32
2023-01-29T21:24:26.409Z,10.82
2023-01-29T21:28:28.040Z,11.02
2023-01-29T21:32:29.579Z,10.90
2023-01-29T21:36:32.213Z,11.32
2023-01-29T21:40:33.798Z,12.32
2023-01-29T21:44:36.540Z,12.13
2023-01-29T21:52:41.100Z,11.15
2023-01-29T21:56:42.725Z,11.38
2023-01-29T22:00:48.787Z,10.65
2023-01-29T22:04:52.357Z,11.98
2023-01-29T22:08:53.968Z,11.73
2023-01-29T22:12:55.783Z,11.95
2023-01-29T22:16:57.652Z,9.15
2023-01-29T22:21:01.252Z,11.17
2023-01-29T22:25:03.642Z,11.48
2023-01-29T22:29:05.207Z,11.32
2023-01-29T22:33:06.912Z,12.07
2023-01-29T22:37:08.890Z,11.98
2023-01-29T22:41:10.965Z,11.10
2023-01-29T22:45:12.572Z,11.32
2023-01-29T22:49:14.161Z,11.10
2023-01-29T22:53:15.818Z,11.95
2023-01-29T22:57:17.570Z,11.48
2023-01-29T23:01:20.763Z,11.38
2023-01-29T23:05:22.409Z,12.18
2023-01-29T23:09:24.163Z,11.45
2023-01-29T23:13:25.686Z,10.68
2023-01-29T23:17:27.218Z,10.95
2023-01-29T23:21:29.050Z,11.48
2023-01-29T23:25:59.735Z,11.93
2023-01-29T23:30:01.370Z,10.35
2023-01-29T23:34:03.161Z,11.90
2023-01-29T23:38:04.819Z,12.23
2023-01-29T23:42:06.450Z,13.13
2023-01-29T23:46:08.079Z,15.20
2023-01-29T23:50:10.423Z,15.82
2023-01-29T23:54:13.312Z,14.35
2023-01-29T23:58:14.855Z,13.68
